sensor_id;sensor_type;location;lat;lon;timestamp;P1;durP1;ratioP1;P2;durP2;ratioP2
69910;SDS011;63555;49.920;17.868;2023-11-21T00:01:02;4.80;;;1.57;;
69910;SDS011;63555;49.920;17.868;2023-11-21T00:06:04;4.40;;;1.20;;
69910;SDS011;63555;49.920;17.868;2023-11-21T00:11:05;3.10;;;1.30;;
69910;SDS011;63555;49.920;17.868;2023-11-21T00:16:05;5.72;;;1.35;;
69910;SDS011;63555;49.920;17.868;2023-11-21T00:21:07;4.83;;;1.80;;
69910;SDS011;63555;49.920;17.868;2023-11-21T00:26:08;5.47;;;1.48;;
69910;SDS011;63555;49.920;17.868;2023-11-21T00:31:09;4.00;;;1.57;;
69910;SDS011;63555;49.920;17.868;2023-11-21T00:36:09;3.40;;;1.30;;
69910;SDS011;63555;49.920;17.868;2023-11-21T00:41:10;6.57;;;1.80;;
69910;SDS011;63555;49.920;17.868;2023-11-21T00:46:10;2.70;;;1.20;;
69910;SDS011;63555;49.920;17.868;2023-11-21T00:51:10;3.60;;;1.40;;
69910;SDS011;63555;49.920;17.868;2023-11-21T00:56:11;4.10;;;1.60;;
69910;SDS011;63555;49.920;17.868;2023-11-21T01:01:11;4.40;;;1.93;;
69910;SDS011;63555;49.920;17.868;2023-11-21T01:06:12;4.43;;;1.70;;
69910;SDS011;63555;49.920;17.868;2023-11-21T01:11:12;3.80;;;1.97;;
69910;SDS011;63555;49.920;17.868;2023-11-21T01:16:13;3.23;;;1.50;;
69910;SDS011;63555;49.920;17.868;2023-11-21T01:21:13;3.13;;;1.47;;
69910;SDS011;63555;49.920;17.868;2023-11-21T01:26:14;4.57;;;1.60;;
69910;SDS011;63555;49.920;17.868;2023-11-21T01:31:14;5.53;;;1.40;;
69910;SDS011;63555;49.920;17.868;2023-11-21T01:36:15;4.47;;;1.88;;
69910;SDS011;63555;49.920;17.868;2023-11-21T01:41:15;3.60;;;1.60;;
69910;SDS011;63555;49.920;17.868;2023-11-21T01:46:16;5.30;;;2.20;;
69910;SDS011;63555;49.920;17.868;2023-11-21T01:51:16;6.83;;;2.00;;
69910;SDS011;63555;49.920;17.868;2023-11-21T01:56:18;8.00;;;1.90;;
69910;SDS011;63555;49.920;17.868;2023-11-21T02:01:19;3.95;;;1.80;;
69910;SDS011;63555;49.920;17.868;2023-11-21T02:06:19;4.73;;;2.00;;
69910;SDS011;63555;49.920;17.868;2023-11-21T02:11:20;3.87;;;1.77;;
69910;SDS011;63555;49.920;17.868;2023-11-21T02:16:21;3.92;;;1.75;;
69910;SDS011;63555;49.920;17.868;2023-11-21T02:21:21;6.43;;;2.20;;
69910;SDS011;63555;49.920;17.868;2023-11-21T02:26:22;5.78;;;1.67;;
69910;SDS011;63555;49.920;17.868;2023-11-21T02:31:22;4.57;;;2.00;;
69910;SDS011;63555;49.920;17.868;2023-11-21T02:36:23;4.47;;;2.00;;
69910;SDS011;63555;49.920;17.868;2023-11-21T02:41:23;6.53;;;1.70;;
69910;SDS011;63555;49.920;17.868;2023-11-21T02:46:23;3.83;;;1.80;;
69910;SDS011;63555;49.920;17.868;2023-11-21T02:51:24;4.10;;;1.73;;
69910;SDS011;63555;49.920;17.868;2023-11-21T02:56:25;4.67;;;1.90;;
69910;SDS011;63555;49.920;17.868;2023-11-21T03:01:28;5.00;;;1.93;;
69910;SDS011;63555;49.920;17.868;2023-11-21T03:06:29;7.20;;;2.08;;
69910;SDS011;63555;49.920;17.868;2023-11-21T03:11:29;3.83;;;2.17;;
69910;SDS011;63555;49.920;17.868;2023-11-21T03:16:29;5.17;;;1.83;;
69910;SDS011;63555;49.920;17.868;2023-11-21T03:21:31;7.25;;;2.35;;
69910;SDS011;63555;49.920;17.868;2023-11-21T03:26:31;8.23;;;3.10;;
69910;SDS011;63555;49.920;17.868;2023-11-21T03:31:32;8.60;;;2.70;;
69910;SDS011;63555;49.920;17.868;2023-11-21T03:36:32;4.43;;;2.60;;
69910;SDS011;63555;49.920;17.868;2023-11-21T03:41:32;6.70;;;2.50;;
69910;SDS011;63555;49.920;17.868;2023-11-21T03:46:34;4.87;;;2.60;;
69910;SDS011;63555;49.920;17.868;2023-11-21T03:51:34;6.03;;;3.00;;
69910;SDS011;63555;49.920;17.868;2023-11-21T03:56:34;4.70;;;2.73;;
69910;SDS011;63555;49.920;17.868;2023-11-21T04:01:35;6.50;;;3.00;;
69910;SDS011;63555;49.920;17.868;2023-11-21T04:06:35;7.10;;;2.97;;
69910;SDS011;63555;49.920;17.868;2023-11-21T04:11:37;5.70;;;2.33;;
69910;SDS011;63555;49.920;17.868;2023-11-21T04:16:37;3.83;;;2.23;;
69910;SDS011;63555;49.920;17.868;2023-11-21T04:21:38;5.67;;;2.13;;
69910;SDS011;63555;49.920;17.868;2023-11-21T04:26:38;4.03;;;2.40;;
69910;SDS011;63555;49.920;17.868;2023-11-21T04:31:39;4.53;;;2.40;;
69910;SDS011;63555;49.920;17.868;2023-11-21T04:36:39;5.97;;;2.50;;
69910;SDS011;63555;49.920;17.868;2023-11-21T04:41:40;4.73;;;2.90;;
69910;SDS011;63555;49.920;17.868;2023-11-21T04:46:40;5.90;;;2.90;;
69910;SDS011;63555;49.920;17.868;2023-11-21T04:51:40;8.27;;;3.60;;
69910;SDS011;63555;49.920;17.868;2023-11-21T04:56:41;6.67;;;2.77;;
69910;SDS011;63555;49.920;17.868;2023-11-21T05:01:42;4.87;;;2.87;;
69910;SDS011;63555;49.920;17.868;2023-11-21T05:06:42;4.37;;;2.63;;
69910;SDS011;63555;49.920;17.868;2023-11-21T05:11:42;5.07;;;2.60;;
69910;SDS011;63555;49.920;17.868;2023-11-21T05:16:43;8.13;;;3.17;;
69910;SDS011;63555;49.920;17.868;2023-11-21T05:21:43;5.63;;;3.00;;
69910;SDS011;63555;49.920;17.868;2023-11-21T05:26:44;6.73;;;3.30;;
69910;SDS011;63555;49.920;17.868;2023-11-21T05:31:44;6.13;;;3.47;;
69910;SDS011;63555;49.920;17.868;2023-11-21T05:36:44;6.70;;;3.73;;
69910;SDS011;63555;49.920;17.868;2023-11-21T05:41:47;8.02;;;3.50;;
69910;SDS011;63555;49.920;17.868;2023-11-21T05:46:47;8.67;;;3.83;;
69910;SDS011;63555;49.920;17.868;2023-11-21T05:51:48;6.40;;;3.97;;
69910;SDS011;63555;49.920;17.868;2023-11-21T05:56:48;7.30;;;3.67;;
69910;SDS011;63555;49.920;17.868;2023-11-21T06:01:49;7.13;;;3.63;;
69910;SDS011;63555;49.920;17.868;2023-11-21T06:06:50;7.60;;;4.27;;
69910;SDS011;63555;49.920;17.868;2023-11-21T06:11:52;7.07;;;4.05;;
69910;SDS011;63555;49.920;17.868;2023-11-21T06:16:52;7.17;;;3.00;;
69910;SDS011;63555;49.920;17.868;2023-11-21T06:21:53;6.77;;;3.03;;
69910;SDS011;63555;49.920;17.868;2023-11-21T06:26:54;5.97;;;3.10;;
69910;SDS011;63555;49.920;17.868;2023-11-21T06:31:54;8.10;;;3.20;;
69910;SDS011;63555;49.920;17.868;2023-11-21T06:36:55;6.85;;;3.65;;
69910;SDS011;63555;49.920;17.868;2023-11-21T06:41:55;4.83;;;3.23;;
69910;SDS011;63555;49.920;17.868;2023-11-21T06:46:56;9.05;;;3.50;;
69910;SDS011;63555;49.920;17.868;2023-11-21T06:51:56;9.90;;;5.60;;
69910;SDS011;63555;49.920;17.868;2023-11-21T06:56:57;7.97;;;4.53;;
69910;SDS011;63555;49.920;17.868;2023-11-21T07:01:58;12.20;;;5.10;;
69910;SDS011;63555;49.920;17.868;2023-11-21T07:06:58;12.40;;;5.50;;
69910;SDS011;63555;49.920;17.868;2023-11-21T07:11:59;11.83;;;5.40;;
69910;SDS011;63555;49.920;17.868;2023-11-21T07:16:59;8.53;;;4.57;;
69910;SDS011;63555;49.920;17.868;2023-11-21T07:22:00;10.00;;;5.27;;
69910;SDS011;63555;49.920;17.868;2023-11-21T07:27:00;13.20;;;5.17;;
69910;SDS011;63555;49.920;17.868;2023-11-21T07:32:00;8.17;;;3.90;;
69910;SDS011;63555;49.920;17.868;2023-11-21T07:37:01;8.57;;;4.07;;
69910;SDS011;63555;49.920;17.868;2023-11-21T07:42:02;8.88;;;4.53;;
69910;SDS011;63555;49.920;17.868;2023-11-21T07:47:04;9.83;;;4.47;;
69910;SDS011;63555;49.920;17.868;2023-11-21T07:52:04;7.82;;;3.72;;
69910;SDS011;63555;49.920;17.868;2023-11-21T07:57:05;8.80;;;4.37;;
69910;SDS011;63555;49.920;17.868;2023-11-21T08:02:05;8.10;;;4.17;;
69910;SDS011;63555;49.920;17.868;2023-11-21T08:07:06;7.07;;;4.03;;
69910;SDS011;63555;49.920;17.868;2023-11-21T08:12:06;10.13;;;4.70;;
69910;SDS011;63555;49.920;17.868;2023-11-21T08:17:07;8.77;;;3.92;;
69910;SDS011;63555;49.920;17.868;2023-11-21T08:22:10;6.07;;;3.58;;
69910;SDS011;63555;49.920;17.868;2023-11-21T08:27:11;9.65;;;5.47;;
69910;SDS011;63555;49.920;17.868;2023-11-21T08:32:11;11.03;;;5.93;;
69910;SDS011;63555;49.920;17.868;2023-11-21T08:37:14;13.27;;;6.00;;
69910;SDS011;63555;49.920;17.868;2023-11-21T08:42:15;10.05;;;5.40;;
69910;SDS011;63555;49.920;17.868;2023-11-21T08:47:16;14.20;;;6.07;;
69910;SDS011;63555;49.920;17.868;2023-11-21T08:52:16;18.67;;;10.40;;
69910;SDS011;63555;49.920;17.868;2023-11-21T08:57:16;12.30;;;6.80;;
69910;SDS011;63555;49.920;17.868;2023-11-21T09:02:17;9.83;;;5.27;;
69910;SDS011;63555;49.920;17.868;2023-11-21T09:07:17;8.93;;;4.50;;
69910;SDS011;63555;49.920;17.868;2023-11-21T09:12:20;11.10;;;5.03;;
69910;SDS011;63555;49.920;17.868;2023-11-21T09:17:21;8.60;;;4.30;;
69910;SDS011;63555;49.920;17.868;2023-11-21T09:22:22;9.43;;;4.33;;
69910;SDS011;63555;49.920;17.868;2023-11-21T09:27:22;9.73;;;5.07;;
69910;SDS011;63555;49.920;17.868;2023-11-21T09:32:22;12.63;;;5.30;;
69910;SDS011;63555;49.920;17.868;2023-11-21T09:37:23;11.87;;;5.80;;
69910;SDS011;63555;49.920;17.868;2023-11-21T09:42:25;7.97;;;4.90;;
69910;SDS011;63555;49.920;17.868;2023-11-21T09:47:33;6.85;;;3.55;;
69910;SDS011;63555;49.920;17.868;2023-11-21T09:52:45;6.30;;;3.40;;
69910;SDS011;63555;49.920;17.868;2023-11-21T09:57:54;5.40;;;3.30;;
69910;SDS011;63555;49.920;17.868;2023-11-21T10:02:56;6.97;;;3.25;;
69910;SDS011;63555;49.920;17.868;2023-11-21T10:07:58;7.83;;;3.53;;
69910;SDS011;63555;49.920;17.868;2023-11-21T10:13:00;8.75;;;4.30;;
69910;SDS011;63555;49.920;17.868;2023-11-21T10:18:06;6.37;;;3.53;;
69910;SDS011;63555;49.920;17.868;2023-11-21T10:23:07;11.30;;;4.10;;
69910;SDS011;63555;49.920;17.868;2023-11-21T10:28:11;8.57;;;4.17;;
69910;SDS011;63555;49.920;17.868;2023-11-21T10:33:11;8.77;;;3.70;;
69910;SDS011;63555;49.920;17.868;2023-11-21T10:38:13;8.77;;;4.32;;
69910;SDS011;63555;49.920;17.868;2023-11-21T10:43:14;4.78;;;2.88;;
69910;SDS011;63555;49.920;17.868;2023-11-21T10:48:18;5.60;;;2.43;;
69910;SDS011;63555;49.920;17.868;2023-11-21T10:53:20;3.55;;;2.05;;
69910;SDS011;63555;49.920;17.868;2023-11-21T10:58:21;10.03;;;3.40;;
69910;SDS011;63555;49.920;17.868;2023-11-21T11:03:21;5.87;;;1.67;;
69910;SDS011;63555;49.920;17.868;2023-11-21T11:08:23;5.82;;;1.75;;
69910;SDS011;63555;49.920;17.868;2023-11-21T11:13:26;7.20;;;1.30;;
69910;SDS011;63555;49.920;17.868;2023-11-21T11:18:27;3.07;;;1.10;;
69910;SDS011;63555;49.920;17.868;2023-11-21T11:23:36;4.35;;;1.20;;
69910;SDS011;63555;49.920;17.868;2023-11-21T11:39:35;4.88;;;1.63;;
69910;SDS011;63555;49.920;17.868;2023-11-21T11:49:56;4.57;;;1.88;;
69910;SDS011;63555;49.920;17.868;2023-11-21T11:55:00;4.38;;;2.05;;
69910;SDS011;63555;49.920;17.868;2023-11-21T12:05:20;9.43;;;2.10;;
69910;SDS011;63555;49.920;17.868;2023-11-21T12:10:27;15.87;;;1.40;;
69910;SDS011;63555;49.920;17.868;2023-11-21T12:15:28;13.05;;;1.13;;
69910;SDS011;63555;49.920;17.868;2023-11-21T12:20:30;10.60;;;1.25;;
69910;SDS011;63555;49.920;17.868;2023-11-21T12:25:31;10.03;;;2.00;;
69910;SDS011;63555;49.920;17.868;2023-11-21T12:30:36;5.85;;;2.50;;
69910;SDS011;63555;49.920;17.868;2023-11-21T12:35:38;4.07;;;1.33;;
69910;SDS011;63555;49.920;17.868;2023-11-21T12:40:38;2.90;;;0.95;;
69910;SDS011;63555;49.920;17.868;2023-11-21T12:45:39;6.67;;;1.00;;
69910;SDS011;63555;49.920;17.868;2023-11-21T12:50:40;3.37;;;1.10;;
69910;SDS011;63555;49.920;17.868;2023-11-21T12:55:41;6.57;;;3.22;;
69910;SDS011;63555;49.920;17.868;2023-11-21T13:00:49;7.68;;;3.83;;
69910;SDS011;63555;49.920;17.868;2023-11-21T13:05:52;17.37;;;8.50;;
69910;SDS011;63555;49.920;17.868;2023-11-21T13:10:57;10.65;;;6.28;;
69910;SDS011;63555;49.920;17.868;2023-11-21T13:16:01;13.70;;;6.67;;
69910;SDS011;63555;49.920;17.868;2023-11-21T13:21:05;14.20;;;8.52;;
69910;SDS011;63555;49.920;17.868;2023-11-21T13:26:17;11.70;;;6.73;;
69910;SDS011;63555;49.920;17.868;2023-11-21T13:31:20;4.28;;;2.10;;
69910;SDS011;63555;49.920;17.868;2023-11-21T13:36:22;6.28;;;2.67;;
69910;SDS011;63555;49.920;17.868;2023-11-21T13:41:23;8.80;;;5.20;;
69910;SDS011;63555;49.920;17.868;2023-11-21T13:46:30;7.55;;;3.90;;
69910;SDS011;63555;49.920;17.868;2023-11-21T13:51:37;6.65;;;3.25;;
69910;SDS011;63555;49.920;17.868;2023-11-21T13:56:41;6.13;;;2.92;;
69910;SDS011;63555;49.920;17.868;2023-11-21T14:01:44;11.93;;;6.00;;
69910;SDS011;63555;49.920;17.868;2023-11-21T14:06:59;10.77;;;4.78;;
69910;SDS011;63555;49.920;17.868;2023-11-21T14:12:10;8.57;;;4.18;;
69910;SDS011;63555;49.920;17.868;2023-11-21T14:17:13;8.50;;;3.40;;
69910;SDS011;63555;49.920;17.868;2023-11-21T14:22:13;9.73;;;3.70;;
69910;SDS011;63555;49.920;17.868;2023-11-21T14:27:13;9.67;;;4.60;;
69910;SDS011;63555;49.920;17.868;2023-11-21T14:32:14;10.52;;;5.45;;
69910;SDS011;63555;49.920;17.868;2023-11-21T14:37:16;8.87;;;3.70;;
69910;SDS011;63555;49.920;17.868;2023-11-21T14:42:16;7.40;;;3.63;;
69910;SDS011;63555;49.920;17.868;2023-11-21T14:47:23;9.43;;;4.03;;
69910;SDS011;63555;49.920;17.868;2023-11-21T14:52:27;8.13;;;3.43;;
69910;SDS011;63555;49.920;17.868;2023-11-21T14:57:33;14.30;;;5.22;;
69910;SDS011;63555;49.920;17.868;2023-11-21T15:02:34;11.37;;;4.77;;
69910;SDS011;63555;49.920;17.868;2023-11-21T15:07:50;14.88;;;5.47;;
69910;SDS011;63555;49.920;17.868;2023-11-21T15:12:55;22.30;;;9.50;;
69910;SDS011;63555;49.920;17.868;2023-11-21T15:17:57;18.17;;;8.02;;
69910;SDS011;63555;49.920;17.868;2023-11-21T15:22:58;15.90;;;8.30;;
69910;SDS011;63555;49.920;17.868;2023-11-21T15:27:58;15.27;;;7.67;;
69910;SDS011;63555;49.920;17.868;2023-11-21T15:32:59;16.17;;;6.90;;
69910;SDS011;63555;49.920;17.868;2023-11-21T15:38:00;31.02;;;10.90;;
69910;SDS011;63555;49.920;17.868;2023-11-21T15:43:01;28.97;;;11.87;;
69910;SDS011;63555;49.920;17.868;2023-11-21T15:48:03;21.85;;;9.43;;
69910;SDS011;63555;49.920;17.868;2023-11-21T15:53:05;18.77;;;8.77;;
69910;SDS011;63555;49.920;17.868;2023-11-21T15:58:05;21.17;;;7.13;;
69910;SDS011;63555;49.920;17.868;2023-11-21T16:03:06;16.93;;;7.30;;
69910;SDS011;63555;49.920;17.868;2023-11-21T16:08:07;22.42;;;7.18;;
69910;SDS011;63555;49.920;17.868;2023-11-21T16:13:08;16.17;;;6.67;;
69910;SDS011;63555;49.920;17.868;2023-11-21T16:18:08;13.37;;;5.23;;
69910;SDS011;63555;49.920;17.868;2023-11-21T16:23:08;12.03;;;5.20;;
69910;SDS011;63555;49.920;17.868;2023-11-21T16:28:09;14.30;;;5.13;;
69910;SDS011;63555;49.920;17.868;2023-11-21T16:33:09;18.27;;;6.93;;
69910;SDS011;63555;49.920;17.868;2023-11-21T16:38:10;34.17;;;10.17;;
69910;SDS011;63555;49.920;17.868;2023-11-21T16:43:12;23.88;;;10.65;;
69910;SDS011;63555;49.920;17.868;2023-11-21T16:48:12;23.97;;;10.50;;
69910;SDS011;63555;49.920;17.868;2023-11-21T16:53:13;30.33;;;12.17;;
69910;SDS011;63555;49.920;17.868;2023-11-21T16:58:14;39.90;;;16.13;;
69910;SDS011;63555;49.920;17.868;2023-11-21T17:03:15;55.28;;;23.42;;
69910;SDS011;63555;49.920;17.868;2023-11-21T17:08:16;38.37;;;15.00;;
69910;SDS011;63555;49.920;17.868;2023-11-21T17:13:17;24.53;;;10.80;;
69910;SDS011;63555;49.920;17.868;2023-11-21T17:18:18;25.08;;;10.43;;
69910;SDS011;63555;49.920;17.868;2023-11-21T17:23:18;24.60;;;8.33;;
69910;SDS011;63555;49.920;17.868;2023-11-21T17:28:18;18.80;;;6.93;;
69910;SDS011;63555;49.920;17.868;2023-11-21T17:33:19;28.50;;;9.40;;
69910;SDS011;63555;49.920;17.868;2023-11-21T17:38:20;24.97;;;9.57;;
69910;SDS011;63555;49.920;17.868;2023-11-21T17:43:21;25.73;;;8.35;;
69910;SDS011;63555;49.920;17.868;2023-11-21T17:48:21;30.13;;;11.27;;
69910;SDS011;63555;49.920;17.868;2023-11-21T17:53:24;34.60;;;12.85;;
69910;SDS011;63555;49.920;17.868;2023-11-21T17:58:24;22.17;;;8.52;;
69910;SDS011;63555;49.920;17.868;2023-11-21T18:03:25;10.20;;;3.53;;
69910;SDS011;63555;49.920;17.868;2023-11-21T18:08:25;8.47;;;3.13;;
69910;SDS011;63555;49.920;17.868;2023-11-21T18:13:26;7.67;;;2.90;;
69910;SDS011;63555;49.920;17.868;2023-11-21T18:18:26;8.80;;;3.05;;
69910;SDS011;63555;49.920;17.868;2023-11-21T18:23:27;10.47;;;4.00;;
69910;SDS011;63555;49.920;17.868;2023-11-21T18:28:28;8.23;;;3.40;;
69910;SDS011;63555;49.920;17.868;2023-11-21T18:33:28;11.55;;;5.75;;
69910;SDS011;63555;49.920;17.868;2023-11-21T18:38:29;11.87;;;3.97;;
69910;SDS011;63555;49.920;17.868;2023-11-21T18:43:29;8.90;;;4.00;;
69910;SDS011;63555;49.920;17.868;2023-11-21T18:48:30;10.57;;;3.90;;
69910;SDS011;63555;49.920;17.868;2023-11-21T18:53:30;12.67;;;4.90;;
69910;SDS011;63555;49.920;17.868;2023-11-21T18:58:34;11.77;;;5.10;;
69910;SDS011;63555;49.920;17.868;2023-11-21T19:03:36;12.63;;;5.63;;
69910;SDS011;63555;49.920;17.868;2023-11-21T19:08:36;11.20;;;4.50;;
69910;SDS011;63555;49.920;17.868;2023-11-21T19:13:37;11.40;;;5.27;;
69910;SDS011;63555;49.920;17.868;2023-11-21T19:18:37;18.03;;;5.97;;
69910;SDS011;63555;49.920;17.868;2023-11-21T19:23:38;14.43;;;5.97;;
69910;SDS011;63555;49.920;17.868;2023-11-21T19:28:38;16.63;;;6.17;;
69910;SDS011;63555;49.920;17.868;2023-11-21T19:33:39;15.17;;;6.10;;
69910;SDS011;63555;49.920;17.868;2023-11-21T19:38:39;16.43;;;5.93;;
69910;SDS011;63555;49.920;17.868;2023-11-21T19:43:40;8.93;;;3.80;;
69910;SDS011;63555;49.920;17.868;2023-11-21T19:48:41;15.00;;;5.82;;
69910;SDS011;63555;49.920;17.868;2023-11-21T19:53:42;14.93;;;5.90;;
69910;SDS011;63555;49.920;17.868;2023-11-21T19:58:43;11.00;;;4.97;;
69910;SDS011;63555;49.920;17.868;2023-11-21T20:03:43;9.17;;;3.90;;
69910;SDS011;63555;49.920;17.868;2023-11-21T20:08:44;5.03;;;1.98;;
69910;SDS011;63555;49.920;17.868;2023-11-21T20:13:51;4.40;;;1.80;;
69910;SDS011;63555;49.920;17.868;2023-11-21T20:18:51;5.97;;;2.53;;
69910;SDS011;63555;49.920;17.868;2023-11-21T20:23:52;4.30;;;2.03;;
69910;SDS011;63555;49.920;17.868;2023-11-21T20:28:53;6.67;;;1.97;;
69910;SDS011;63555;49.920;17.868;2023-11-21T20:33:54;5.80;;;2.50;;
69910;SDS011;63555;49.920;17.868;2023-11-21T20:38:54;6.97;;;2.93;;
69910;SDS011;63555;49.920;17.868;2023-11-21T20:43:54;5.93;;;2.47;;
69910;SDS011;63555;49.920;17.868;2023-11-21T20:48:56;8.07;;;3.23;;
69910;SDS011;63555;49.920;17.868;2023-11-21T20:53:56;8.77;;;3.73;;
69910;SDS011;63555;49.920;17.868;2023-11-21T20:59:02;10.70;;;4.20;;
69910;SDS011;63555;49.920;17.868;2023-11-21T21:04:06;9.35;;;4.18;;
69910;SDS011;63555;49.920;17.868;2023-11-21T21:09:07;9.57;;;3.47;;
69910;SDS011;63555;49.920;17.868;2023-11-21T21:14:09;9.50;;;4.47;;
69910;SDS011;63555;49.920;17.868;2023-11-21T21:19:09;9.10;;;3.73;;
69910;SDS011;63555;49.920;17.868;2023-11-21T21:24:10;9.85;;;4.97;;
69910;SDS011;63555;49.920;17.868;2023-11-21T21:29:11;7.93;;;4.00;;
69910;SDS011;63555;49.920;17.868;2023-11-21T21:34:11;9.57;;;3.87;;
69910;SDS011;63555;49.920;17.868;2023-11-21T21:39:13;11.73;;;5.80;;
69910;SDS011;63555;49.920;17.868;2023-11-21T21:44:14;11.33;;;5.57;;
69910;SDS011;63555;49.920;17.868;2023-11-21T21:49:15;12.10;;;5.55;;
69910;SDS011;63555;49.920;17.868;2023-11-21T21:54:16;11.43;;;5.75;;
69910;SDS011;63555;49.920;17.868;2023-11-21T21:59:16;17.43;;;7.43;;
69910;SDS011;63555;49.920;17.868;2023-11-21T22:04:17;13.83;;;5.93;;
69910;SDS011;63555;49.920;17.868;2023-11-21T22:09:17;11.87;;;5.47;;
69910;SDS011;63555;49.920;17.868;2023-11-21T22:14:19;10.35;;;5.25;;
69910;SDS011;63555;49.920;17.868;2023-11-21T22:19:19;11.43;;;4.97;;
69910;SDS011;63555;49.920;17.868;2023-11-21T22:24:19;9.77;;;4.83;;
69910;SDS011;63555;49.920;17.868;2023-11-21T22:29:20;9.70;;;4.40;;
69910;SDS011;63555;49.920;17.868;2023-11-21T22:34:21;10.38;;;4.50;;
69910;SDS011;63555;49.920;17.868;2023-11-21T22:39:21;7.30;;;3.13;;
69910;SDS011;63555;49.920;17.868;2023-11-21T22:44:22;13.47;;;5.63;;
69910;SDS011;63555;49.920;17.868;2023-11-21T22:49:22;8.90;;;4.63;;
69910;SDS011;63555;49.920;17.868;2023-11-21T22:54:23;8.77;;;4.33;;
69910;SDS011;63555;49.920;17.868;2023-11-21T22:59:24;9.63;;;5.10;;
69910;SDS011;63555;49.920;17.868;2023-11-21T23:04:24;13.23;;;5.82;;
69910;SDS011;63555;49.920;17.868;2023-11-21T23:09:24;14.60;;;6.00;;
69910;SDS011;63555;49.920;17.868;2023-11-21T23:14:25;16.63;;;6.90;;
69910;SDS011;63555;49.920;17.868;2023-11-21T23:19:26;13.87;;;7.63;;
69910;SDS011;63555;49.920;17.868;2023-11-21T23:24:27;13.70;;;6.90;;
69910;SDS011;63555;49.920;17.868;2023-11-21T23:29:27;15.98;;;7.57;;
69910;SDS011;63555;49.920;17.868;2023-11-21T23:34:28;15.80;;;7.50;;
69910;SDS011;63555;49.920;17.868;2023-11-21T23:39:28;12.13;;;5.13;;
69910;SDS011;63555;49.920;17.868;2023-11-21T23:44:29;19.67;;;10.30;;
69910;SDS011;63555;49.920;17.868;2023-11-21T23:49:30;17.13;;;7.43;;
69910;SDS011;63555;49.920;17.868;2023-11-21T23:54:31;15.32;;;7.20;;
69910;SDS011;63555;49.920;17.868;2023-11-21T23:59:32;13.63;;;6.63;;
